sensor_id;sensor_type;location;lat;lon;timestamp;temperature;humidity
6270;DHT22;3168;51.684;6.954;2024-02-21T00:01:42;8.90;60.60
6270;DHT22;3168;51.684;6.954;2024-02-21T00:04:08;8.90;60.40
6270;DHT22;3168;51.684;6.954;2024-02-21T00:06:33;8.90;60.40
6270;DHT22;3168;51.684;6.954;2024-02-21T00:08:59;8.90;60.40
6270;DHT22;3168;51.684;6.954;2024-02-21T00:11:25;8.90;60.40
6270;DHT22;3168;51.684;6.954;2024-02-21T00:13:51;8.90;60.40
6270;DHT22;3168;51.684;6.954;2024-02-21T00:16:17;8.90;60.40
6270;DHT22;3168;51.684;6.954;2024-02-21T00:18:43;8.90;60.50
6270;DHT22;3168;51.684;6.954;2024-02-21T00:21:08;8.80;60.40
6270;DHT22;3168;51.684;6.954;2024-02-21T00:23:34;8.90;60.50
6270;DHT22;3168;51.684;6.954;2024-02-21T00:26:00;8.90;60.50
6270;DHT22;3168;51.684;6.954;2024-02-21T00:28:26;8.90;60.70
6270;DHT22;3168;51.684;6.954;2024-02-21T00:30:52;8.90;60.50
6270;DHT22;3168;51.684;6.954;2024-02-21T00:33:18;8.90;60.70
6270;DHT22;3168;51.684;6.954;2024-02-21T00:35:43;8.90;60.60
6270;DHT22;3168;51.684;6.954;2024-02-21T00:38:09;8.80;60.60
6270;DHT22;3168;51.684;6.954;2024-02-21T00:40:35;8.80;61.00
6270;DHT22;3168;51.684;6.954;2024-02-21T00:43:02;8.80;65.00
6270;DHT22;3168;51.684;6.954;2024-02-21T00:45:29;8.80;71.70
6270;DHT22;3168;51.684;6.954;2024-02-21T00:47:55;8.80;62.00
6270;DHT22;3168;51.684;6.954;2024-02-21T00:50:21;8.80;60.70
6270;DHT22;3168;51.684;6.954;2024-02-21T00:52:47;8.80;60.50
6270;DHT22;3168;51.684;6.954;2024-02-21T00:55:13;8.80;60.60
6270;DHT22;3168;51.684;6.954;2024-02-21T00:57:38;8.80;61.10
6270;DHT22;3168;51.684;6.954;2024-02-21T01:00:05;8.80;60.80
6270;DHT22;3168;51.684;6.954;2024-02-21T01:02:31;8.80;60.80
6270;DHT22;3168;51.684;6.954;2024-02-21T01:04:57;8.80;60.60
6270;DHT22;3168;51.684;6.954;2024-02-21T01:07:23;8.80;60.70
6270;DHT22;3168;51.684;6.954;2024-02-21T01:09:48;8.80;60.50
6270;DHT22;3168;51.684;6.954;2024-02-21T01:12:14;8.80;60.80
6270;DHT22;3168;51.684;6.954;2024-02-21T01:14:40;8.80;60.80
6270;DHT22;3168;51.684;6.954;2024-02-21T01:17:06;8.80;60.80
6270;DHT22;3168;51.684;6.954;2024-02-21T01:19:32;8.80;62.10
6270;DHT22;3168;51.684;6.954;2024-02-21T01:21:58;8.80;61.00
6270;DHT22;3168;51.684;6.954;2024-02-21T01:24:24;8.80;61.00
6270;DHT22;3168;51.684;6.954;2024-02-21T01:26:49;8.80;61.10
6270;DHT22;3168;51.684;6.954;2024-02-21T01:29:15;8.80;60.90
6270;DHT22;3168;51.684;6.954;2024-02-21T01:31:41;8.80;61.00
6270;DHT22;3168;51.684;6.954;2024-02-21T01:34:07;8.80;62.00
6270;DHT22;3168;51.684;6.954;2024-02-21T01:36:33;8.80;60.50
6270;DHT22;3168;51.684;6.954;2024-02-21T01:38:58;8.80;60.50
6270;DHT22;3168;51.684;6.954;2024-02-21T01:41:24;8.80;60.50
6270;DHT22;3168;51.684;6.954;2024-02-21T01:43:50;8.80;60.50
6270;DHT22;3168;51.684;6.954;2024-02-21T01:46:16;8.90;60.60
6270;DHT22;3168;51.684;6.954;2024-02-21T01:48:42;8.80;60.40
6270;DHT22;3168;51.684;6.954;2024-02-21T01:51:07;8.90;60.40
6270;DHT22;3168;51.684;6.954;2024-02-21T01:53:35;8.80;60.40
6270;DHT22;3168;51.684;6.954;2024-02-21T01:55:59;8.80;60.40
6270;DHT22;3168;51.684;6.954;2024-02-21T01:58:25;8.80;60.50
6270;DHT22;3168;51.684;6.954;2024-02-21T02:00:51;8.80;60.50
6270;DHT22;3168;51.684;6.954;2024-02-21T02:03:17;8.90;60.70
6270;DHT22;3168;51.684;6.954;2024-02-21T02:05:44;8.80;60.40
6270;DHT22;3168;51.684;6.954;2024-02-21T02:08:10;8.90;60.50
6270;DHT22;3168;51.684;6.954;2024-02-21T02:10:36;8.80;60.40
6270;DHT22;3168;51.684;6.954;2024-02-21T02:13:02;8.80;60.40
6270;DHT22;3168;51.684;6.954;2024-02-21T02:15:37;8.80;60.30
6270;DHT22;3168;51.684;6.954;2024-02-21T02:17:53;8.80;60.40
6270;DHT22;3168;51.684;6.954;2024-02-21T02:20:19;8.80;60.30
6270;DHT22;3168;51.684;6.954;2024-02-21T02:22:45;8.70;60.40
6270;DHT22;3168;51.684;6.954;2024-02-21T02:25:11;8.70;60.40
6270;DHT22;3168;51.684;6.954;2024-02-21T02:27:42;8.70;60.40
6270;DHT22;3168;51.684;6.954;2024-02-21T02:30:08;8.70;60.40
6270;DHT22;3168;51.684;6.954;2024-02-21T02:32:34;8.70;60.50
6270;DHT22;3168;51.684;6.954;2024-02-21T02:35:00;8.70;60.50
6270;DHT22;3168;51.684;6.954;2024-02-21T02:37:25;8.60;60.80
6270;DHT22;3168;51.684;6.954;2024-02-21T02:39:51;8.70;60.90
6270;DHT22;3168;51.684;6.954;2024-02-21T02:42:17;8.60;61.00
6270;DHT22;3168;51.684;6.954;2024-02-21T02:44:43;8.50;74.80
6270;DHT22;3168;51.684;6.954;2024-02-21T02:47:09;8.60;76.10
6270;DHT22;3168;51.684;6.954;2024-02-21T02:49:34;8.60;74.00
6270;DHT22;3168;51.684;6.954;2024-02-21T02:52:00;8.60;72.90
6270;DHT22;3168;51.684;6.954;2024-02-21T02:54:26;8.60;66.80
6270;DHT22;3168;51.684;6.954;2024-02-21T02:56:52;8.60;75.60
6270;DHT22;3168;51.684;6.954;2024-02-21T02:59:18;8.60;72.50
6270;DHT22;3168;51.684;6.954;2024-02-21T03:01:44;8.60;61.40
6270;DHT22;3168;51.684;6.954;2024-02-21T03:04:09;8.60;61.60
6270;DHT22;3168;51.684;6.954;2024-02-21T03:06:35;8.60;61.80
6270;DHT22;3168;51.684;6.954;2024-02-21T03:09:01;8.70;62.00
6270;DHT22;3168;51.684;6.954;2024-02-21T03:11:27;8.70;60.30
6270;DHT22;3168;51.684;6.954;2024-02-21T03:13:53;8.70;60.50
6270;DHT22;3168;51.684;6.954;2024-02-21T03:16:18;8.70;60.30
6270;DHT22;3168;51.684;6.954;2024-02-21T03:18:44;8.70;60.30
6270;DHT22;3168;51.684;6.954;2024-02-21T03:21:10;8.70;60.30
6270;DHT22;3168;51.684;6.954;2024-02-21T03:23:36;8.70;60.30
6270;DHT22;3168;51.684;6.954;2024-02-21T03:26:02;8.70;60.30
6270;DHT22;3168;51.684;6.954;2024-02-21T03:28:28;8.80;60.30
6270;DHT22;3168;51.684;6.954;2024-02-21T03:30:53;8.80;60.30
6270;DHT22;3168;51.684;6.954;2024-02-21T03:33:19;8.80;60.30
6270;DHT22;3168;51.684;6.954;2024-02-21T03:35:45;8.80;60.30
6270;DHT22;3168;51.684;6.954;2024-02-21T03:38:11;8.80;60.30
6270;DHT22;3168;51.684;6.954;2024-02-21T03:40:36;8.80;60.30
6270;DHT22;3168;51.684;6.954;2024-02-21T03:43:03;8.70;60.30
6270;DHT22;3168;51.684;6.954;2024-02-21T03:45:28;8.80;60.30
6270;DHT22;3168;51.684;6.954;2024-02-21T03:47:54;8.80;60.30
6270;DHT22;3168;51.684;6.954;2024-02-21T03:50:20;8.80;60.30
6270;DHT22;3168;51.684;6.954;2024-02-21T03:52:46;8.80;60.30
6270;DHT22;3168;51.684;6.954;2024-02-21T03:55:12;8.80;60.30
6270;DHT22;3168;51.684;6.954;2024-02-21T03:57:37;8.80;60.30
6270;DHT22;3168;51.684;6.954;2024-02-21T04:00:04;8.80;60.30
6270;DHT22;3168;51.684;6.954;2024-02-21T04:02:30;8.80;60.30
6270;DHT22;3168;51.684;6.954;2024-02-21T04:04:56;8.80;60.60
6270;DHT22;3168;51.684;6.954;2024-02-21T04:07:22;8.80;64.70
6270;DHT22;3168;51.684;6.954;2024-02-21T04:09:48;8.80;60.40
6270;DHT22;3168;51.684;6.954;2024-02-21T04:12:14;8.80;60.40
6270;DHT22;3168;51.684;6.954;2024-02-21T04:14:39;8.80;60.40
6270;DHT22;3168;51.684;6.954;2024-02-21T04:17:05;8.80;60.40
6270;DHT22;3168;51.684;6.954;2024-02-21T04:19:31;8.80;60.40
6270;DHT22;3168;51.684;6.954;2024-02-21T04:21:57;8.80;60.40
6270;DHT22;3168;51.684;6.954;2024-02-21T04:24:23;8.80;60.40
6270;DHT22;3168;51.684;6.954;2024-02-21T04:26:48;8.80;60.40
6270;DHT22;3168;51.684;6.954;2024-02-21T04:29:14;8.80;60.30
6270;DHT22;3168;51.684;6.954;2024-02-21T04:31:40;8.80;60.30
6270;DHT22;3168;51.684;6.954;2024-02-21T04:34:06;8.80;58.70
6270;DHT22;3168;51.684;6.954;2024-02-21T04:36:31;8.80;45.10
6270;DHT22;3168;51.684;6.954;2024-02-21T04:38:57;8.80;42.10
6270;DHT22;3168;51.684;6.954;2024-02-21T04:41:24;8.80;45.10
6270;DHT22;3168;51.684;6.954;2024-02-21T04:43:49;8.80;44.30
6270;DHT22;3168;51.684;6.954;2024-02-21T04:46:15;8.80;47.50
6270;DHT22;3168;51.684;6.954;2024-02-21T04:48:42;8.80;44.60
6270;DHT22;3168;51.684;6.954;2024-02-21T04:51:07;8.80;49.80
6270;DHT22;3168;51.684;6.954;2024-02-21T04:53:33;8.80;38.30
6270;DHT22;3168;51.684;6.954;2024-02-21T04:55:59;8.80;40.10
6270;DHT22;3168;51.684;6.954;2024-02-21T04:58:25;8.80;37.10
6270;DHT22;3168;51.684;6.954;2024-02-21T05:00:51;8.80;39.70
6270;DHT22;3168;51.684;6.954;2024-02-21T05:03:16;8.80;38.60
6270;DHT22;3168;51.684;6.954;2024-02-21T05:05:42;8.80;38.00
6270;DHT22;3168;51.684;6.954;2024-02-21T05:08:09;8.80;37.70
6270;DHT22;3168;51.684;6.954;2024-02-21T05:10:34;8.80;35.80
6270;DHT22;3168;51.684;6.954;2024-02-21T05:13:00;8.80;35.40
6270;DHT22;3168;51.684;6.954;2024-02-21T05:15:26;8.80;40.30
6270;DHT22;3168;51.684;6.954;2024-02-21T05:17:51;8.80;37.60
6270;DHT22;3168;51.684;6.954;2024-02-21T05:20:17;8.80;33.90
6270;DHT22;3168;51.684;6.954;2024-02-21T05:22:43;8.80;34.30
6270;DHT22;3168;51.684;6.954;2024-02-21T05:25:09;8.80;33.90
6270;DHT22;3168;51.684;6.954;2024-02-21T05:27:35;8.80;29.70
6270;DHT22;3168;51.684;6.954;2024-02-21T05:30:01;8.80;32.10
6270;DHT22;3168;51.684;6.954;2024-02-21T05:32:26;8.80;28.10
6270;DHT22;3168;51.684;6.954;2024-02-21T05:34:52;8.80;26.10
6270;DHT22;3168;51.684;6.954;2024-02-21T05:37:18;8.80;23.90
6270;DHT22;3168;51.684;6.954;2024-02-21T05:39:44;8.80;20.50
6270;DHT22;3168;51.684;6.954;2024-02-21T05:42:09;8.80;14.90
6270;DHT22;3168;51.684;6.954;2024-02-21T05:44:35;8.80;16.00
6270;DHT22;3168;51.684;6.954;2024-02-21T05:47:01;8.80;12.90
6270;DHT22;3168;51.684;6.954;2024-02-21T05:49:27;8.80;14.60
6270;DHT22;3168;51.684;6.954;2024-02-21T05:51:53;8.80;11.00
6270;DHT22;3168;51.684;6.954;2024-02-21T05:54:18;8.80;8.90
6270;DHT22;3168;51.684;6.954;2024-02-21T05:56:45;8.80;12.20
6270;DHT22;3168;51.684;6.954;2024-02-21T05:59:10;8.80;6.60
6270;DHT22;3168;51.684;6.954;2024-02-21T06:01:36;8.80;7.20
6270;DHT22;3168;51.684;6.954;2024-02-21T06:04:02;8.80;5.20
6270;DHT22;3168;51.684;6.954;2024-02-21T06:06:27;8.80;2.80
6270;DHT22;3168;51.684;6.954;2024-02-21T06:08:53;8.80;2.40
6270;DHT22;3168;51.684;6.954;2024-02-21T06:11:19;8.90;1.00
6270;DHT22;3168;51.684;6.954;2024-02-21T06:13:45;8.90;1.00
6270;DHT22;3168;51.684;6.954;2024-02-21T06:16:11;8.90;1.00
6270;DHT22;3168;51.684;6.954;2024-02-21T06:18:36;8.90;1.00
6270;DHT22;3168;51.684;6.954;2024-02-21T06:21:02;8.90;1.00
6270;DHT22;3168;51.684;6.954;2024-02-21T06:23:28;8.90;1.00
6270;DHT22;3168;51.684;6.954;2024-02-21T06:25:54;8.90;1.00
6270;DHT22;3168;51.684;6.954;2024-02-21T06:28:20;8.90;1.00
6270;DHT22;3168;51.684;6.954;2024-02-21T06:30:45;8.90;1.30
6270;DHT22;3168;51.684;6.954;2024-02-21T06:33:11;8.90;3.60
6270;DHT22;3168;51.684;6.954;2024-02-21T06:35:37;8.90;3.30
6270;DHT22;3168;51.684;6.954;2024-02-21T06:38:03;8.90;2.60
6270;DHT22;3168;51.684;6.954;2024-02-21T06:40:29;8.90;2.90
6270;DHT22;3168;51.684;6.954;2024-02-21T06:42:54;8.90;3.20
6270;DHT22;3168;51.684;6.954;2024-02-21T06:45:20;8.90;4.50
6270;DHT22;3168;51.684;6.954;2024-02-21T06:47:46;8.90;5.00
6270;DHT22;3168;51.684;6.954;2024-02-21T06:50:12;8.90;5.70
6270;DHT22;3168;51.684;6.954;2024-02-21T06:52:38;8.90;4.50
6270;DHT22;3168;51.684;6.954;2024-02-21T06:55:04;8.90;8.50
6270;DHT22;3168;51.684;6.954;2024-02-21T06:57:30;8.90;11.20
6270;DHT22;3168;51.684;6.954;2024-02-21T06:59:55;8.80;12.30
6270;DHT22;3168;51.684;6.954;2024-02-21T07:02:21;8.90;13.70
6270;DHT22;3168;51.684;6.954;2024-02-21T07:04:47;8.90;12.40
6270;DHT22;3168;51.684;6.954;2024-02-21T07:07:13;8.90;14.80
6270;DHT22;3168;51.684;6.954;2024-02-21T07:09:39;8.90;15.10
6270;DHT22;3168;51.684;6.954;2024-02-21T07:12:05;8.90;16.20
6270;DHT22;3168;51.684;6.954;2024-02-21T07:14:32;8.90;15.70
6270;DHT22;3168;51.684;6.954;2024-02-21T07:16:57;8.90;17.00
6270;DHT22;3168;51.684;6.954;2024-02-21T07:19:23;8.90;14.00
6270;DHT22;3168;51.684;6.954;2024-02-21T07:21:49;8.90;12.70
6270;DHT22;3168;51.684;6.954;2024-02-21T07:24:15;8.90;15.00
6270;DHT22;3168;51.684;6.954;2024-02-21T07:26:41;8.90;16.70
6270;DHT22;3168;51.684;6.954;2024-02-21T07:29:06;9.00;12.50
6270;DHT22;3168;51.684;6.954;2024-02-21T07:31:38;8.90;9.50
6270;DHT22;3168;51.684;6.954;2024-02-21T07:33:58;9.00;8.30
6270;DHT22;3168;51.684;6.954;2024-02-21T07:36:27;9.00;7.70
6270;DHT22;3168;51.684;6.954;2024-02-21T07:38:50;9.00;8.40
6270;DHT22;3168;51.684;6.954;2024-02-21T07:41:15;9.00;8.50
6270;DHT22;3168;51.684;6.954;2024-02-21T07:43:41;9.00;6.30
6270;DHT22;3168;51.684;6.954;2024-02-21T07:46:07;9.00;5.30
6270;DHT22;3168;51.684;6.954;2024-02-21T07:48:33;9.10;5.20
6270;DHT22;3168;51.684;6.954;2024-02-21T07:50:59;9.00;1.00
6270;DHT22;3168;51.684;6.954;2024-02-21T07:53:25;9.10;3.00
6270;DHT22;3168;51.684;6.954;2024-02-21T07:55:51;9.10;1.00
6270;DHT22;3168;51.684;6.954;2024-02-21T07:58:16;9.10;1.00
6270;DHT22;3168;51.684;6.954;2024-02-21T08:00:42;9.10;1.00
6270;DHT22;3168;51.684;6.954;2024-02-21T08:03:08;9.20;1.00
6270;DHT22;3168;51.684;6.954;2024-02-21T08:05:34;9.20;1.00
6270;DHT22;3168;51.684;6.954;2024-02-21T08:07:59;9.20;1.00
6270;DHT22;3168;51.684;6.954;2024-02-21T08:10:25;9.20;1.00
6270;DHT22;3168;51.684;6.954;2024-02-21T08:12:52;9.20;1.00
6270;DHT22;3168;51.684;6.954;2024-02-21T08:15:18;9.20;1.00
6270;DHT22;3168;51.684;6.954;2024-02-21T08:17:44;9.20;1.00
6270;DHT22;3168;51.684;6.954;2024-02-21T08:20:10;9.20;1.00
6270;DHT22;3168;51.684;6.954;2024-02-21T08:22:37;9.30;1.00
6270;DHT22;3168;51.684;6.954;2024-02-21T08:25:04;9.30;1.00
6270;DHT22;3168;51.684;6.954;2024-02-21T08:27:34;9.30;1.00
6270;DHT22;3168;51.684;6.954;2024-02-21T08:29:59;9.40;1.00
6270;DHT22;3168;51.684;6.954;2024-02-21T08:32:25;9.40;1.00
6270;DHT22;3168;51.684;6.954;2024-02-21T08:34:51;9.40;1.00
6270;DHT22;3168;51.684;6.954;2024-02-21T08:37:17;9.40;1.00
6270;DHT22;3168;51.684;6.954;2024-02-21T08:39:43;9.40;1.00
6270;DHT22;3168;51.684;6.954;2024-02-21T08:42:09;9.40;1.00
6270;DHT22;3168;51.684;6.954;2024-02-21T08:44:35;9.40;1.00
6270;DHT22;3168;51.684;6.954;2024-02-21T08:47:01;9.50;1.00
6270;DHT22;3168;51.684;6.954;2024-02-21T08:49:26;9.50;1.00
6270;DHT22;3168;51.684;6.954;2024-02-21T08:51:52;9.50;1.00
6270;DHT22;3168;51.684;6.954;2024-02-21T08:54:18;9.60;1.00
6270;DHT22;3168;51.684;6.954;2024-02-21T08:56:44;9.60;1.00
6270;DHT22;3168;51.684;6.954;2024-02-21T08:59:10;9.60;1.00
6270;DHT22;3168;51.684;6.954;2024-02-21T09:01:36;9.60;1.00
6270;DHT22;3168;51.684;6.954;2024-02-21T09:04:02;9.70;1.00
6270;DHT22;3168;51.684;6.954;2024-02-21T09:06:28;9.70;1.00
6270;DHT22;3168;51.684;6.954;2024-02-21T09:08:55;9.80;1.00
6270;DHT22;3168;51.684;6.954;2024-02-21T09:11:19;9.80;1.00
6270;DHT22;3168;51.684;6.954;2024-02-21T09:13:45;9.70;1.00
6270;DHT22;3168;51.684;6.954;2024-02-21T09:16:11;9.70;1.00
6270;DHT22;3168;51.684;6.954;2024-02-21T09:18:37;9.70;1.00
6270;DHT22;3168;51.684;6.954;2024-02-21T09:21:03;9.70;1.00
6270;DHT22;3168;51.684;6.954;2024-02-21T09:23:29;9.60;1.00
6270;DHT22;3168;51.684;6.954;2024-02-21T09:25:55;9.60;1.00
6270;DHT22;3168;51.684;6.954;2024-02-21T09:28:20;9.60;1.00
6270;DHT22;3168;51.684;6.954;2024-02-21T09:30:46;9.50;1.00
6270;DHT22;3168;51.684;6.954;2024-02-21T09:33:12;9.50;1.00
6270;DHT22;3168;51.684;6.954;2024-02-21T09:35:38;9.50;1.00
6270;DHT22;3168;51.684;6.954;2024-02-21T09:38:04;9.60;1.00
6270;DHT22;3168;51.684;6.954;2024-02-21T09:40:30;9.60;1.00
6270;DHT22;3168;51.684;6.954;2024-02-21T09:43:02;9.60;1.00
6270;DHT22;3168;51.684;6.954;2024-02-21T09:45:28;9.50;1.00
6270;DHT22;3168;51.684;6.954;2024-02-21T09:48:03;9.60;1.00
6270;DHT22;3168;51.684;6.954;2024-02-21T09:50:24;9.50;1.00
6270;DHT22;3168;51.684;6.954;2024-02-21T09:52:51;9.50;1.00
6270;DHT22;3168;51.684;6.954;2024-02-21T09:55:16;9.50;1.00
6270;DHT22;3168;51.684;6.954;2024-02-21T09:57:43;9.60;1.00
6270;DHT22;3168;51.684;6.954;2024-02-21T10:00:08;9.60;1.00
6270;DHT22;3168;51.684;6.954;2024-02-21T10:02:34;9.60;1.00
6270;DHT22;3168;51.684;6.954;2024-02-21T10:05:00;9.60;1.00
6270;DHT22;3168;51.684;6.954;2024-02-21T10:07:26;9.60;1.00
6270;DHT22;3168;51.684;6.954;2024-02-21T10:10:01;9.70;1.00
6270;DHT22;3168;51.684;6.954;2024-02-21T10:12:26;9.60;1.00
6270;DHT22;3168;51.684;6.954;2024-02-21T10:15:02;9.60;1.00
6270;DHT22;3168;51.684;6.954;2024-02-21T10:17:26;9.70;1.00
6270;DHT22;3168;51.684;6.954;2024-02-21T10:19:52;9.60;1.00
6270;DHT22;3168;51.684;6.954;2024-02-21T10:22:18;9.50;1.00
6270;DHT22;3168;51.684;6.954;2024-02-21T10:24:44;9.40;1.00
6270;DHT22;3168;51.684;6.954;2024-02-21T10:27:10;9.30;1.00
6270;DHT22;3168;51.684;6.954;2024-02-21T10:29:36;9.30;1.00
6270;DHT22;3168;51.684;6.954;2024-02-21T10:32:11;9.30;1.00
6270;DHT22;3168;51.684;6.954;2024-02-21T10:34:37;9.40;1.00
6270;DHT22;3168;51.684;6.954;2024-02-21T10:37:04;9.40;1.00
6270;DHT22;3168;51.684;6.954;2024-02-21T10:39:31;9.40;1.00
6270;DHT22;3168;51.684;6.954;2024-02-21T10:41:56;9.40;1.00
6270;DHT22;3168;51.684;6.954;2024-02-21T10:44:22;9.40;1.00
6270;DHT22;3168;51.684;6.954;2024-02-21T10:46:48;9.50;1.00
6270;DHT22;3168;51.684;6.954;2024-02-21T10:49:16;9.50;1.00
6270;DHT22;3168;51.684;6.954;2024-02-21T10:51:42;9.50;1.00
6270;DHT22;3168;51.684;6.954;2024-02-21T10:56:44;9.50;1.00
6270;DHT22;3168;51.684;6.954;2024-02-21T10:59:09;9.50;1.00
6270;DHT22;3168;51.684;6.954;2024-02-21T11:01:35;9.50;1.00
6270;DHT22;3168;51.684;6.954;2024-02-21T11:04:01;9.50;1.00
6270;DHT22;3168;51.684;6.954;2024-02-21T11:06:27;9.60;1.00
6270;DHT22;3168;51.684;6.954;2024-02-21T11:09:01;9.70;1.00
6270;DHT22;3168;51.684;6.954;2024-02-21T11:11:26;9.70;1.00
6270;DHT22;3168;51.684;6.954;2024-02-21T11:13:52;9.70;1.00
6270;DHT22;3168;51.684;6.954;2024-02-21T11:16:22;9.80;1.00
6270;DHT22;3168;51.684;6.954;2024-02-21T11:18:47;10.00;1.00
6270;DHT22;3168;51.684;6.954;2024-02-21T11:21:13;10.00;1.00
6270;DHT22;3168;51.684;6.954;2024-02-21T11:23:39;10.00;1.00
6270;DHT22;3168;51.684;6.954;2024-02-21T11:26:09;9.90;1.00
6270;DHT22;3168;51.684;6.954;2024-02-21T11:28:35;9.90;1.00
6270;DHT22;3168;51.684;6.954;2024-02-21T11:31:10;9.90;1.00
6270;DHT22;3168;51.684;6.954;2024-02-21T11:33:35;10.00;1.00
6270;DHT22;3168;51.684;6.954;2024-02-21T11:36:01;10.00;1.00
6270;DHT22;3168;51.684;6.954;2024-02-21T11:38:27;10.10;1.00
6270;DHT22;3168;51.684;6.954;2024-02-21T11:40:54;10.20;1.00
6270;DHT22;3168;51.684;6.954;2024-02-21T11:43:20;10.30;1.00
6270;DHT22;3168;51.684;6.954;2024-02-21T11:45:47;10.40;1.00
6270;DHT22;3168;51.684;6.954;2024-02-21T11:48:16;10.50;1.00
6270;DHT22;3168;51.684;6.954;2024-02-21T11:50:42;10.50;1.00
6270;DHT22;3168;51.684;6.954;2024-02-21T11:53:08;10.50;1.00
6270;DHT22;3168;51.684;6.954;2024-02-21T11:55:34;10.50;1.00
6270;DHT22;3168;51.684;6.954;2024-02-21T11:57:59;10.50;1.00
6270;DHT22;3168;51.684;6.954;2024-02-21T12:00:25;10.40;1.00
6270;DHT22;3168;51.684;6.954;2024-02-21T12:02:51;10.50;1.00
6270;DHT22;3168;51.684;6.954;2024-02-21T12:05:18;10.60;1.00
6270;DHT22;3168;51.684;6.954;2024-02-21T12:07:44;10.70;1.00
6270;DHT22;3168;51.684;6.954;2024-02-21T12:10:10;10.80;1.00
6270;DHT22;3168;51.684;6.954;2024-02-21T12:12:37;10.70;1.00
6270;DHT22;3168;51.684;6.954;2024-02-21T12:15:03;10.70;1.00
6270;DHT22;3168;51.684;6.954;2024-02-21T12:17:29;10.70;1.00
6270;DHT22;3168;51.684;6.954;2024-02-21T12:19:54;10.70;1.00
6270;DHT22;3168;51.684;6.954;2024-02-21T12:22:20;10.50;1.00
6270;DHT22;3168;51.684;6.954;2024-02-21T12:24:46;10.50;1.00
6270;DHT22;3168;51.684;6.954;2024-02-21T12:27:12;10.60;1.00
6270;DHT22;3168;51.684;6.954;2024-02-21T12:29:38;10.60;1.00
6270;DHT22;3168;51.684;6.954;2024-02-21T12:32:04;10.60;1.00
6270;DHT22;3168;51.684;6.954;2024-02-21T12:34:29;10.60;1.00
6270;DHT22;3168;51.684;6.954;2024-02-21T12:36:55;10.70;1.00
6270;DHT22;3168;51.684;6.954;2024-02-21T12:39:21;10.70;1.00
6270;DHT22;3168;51.684;6.954;2024-02-21T12:41:47;10.80;1.00
6270;DHT22;3168;51.684;6.954;2024-02-21T12:44:13;10.80;1.00
6270;DHT22;3168;51.684;6.954;2024-02-21T12:46:39;10.80;1.00
6270;DHT22;3168;51.684;6.954;2024-02-21T12:49:04;10.80;1.00
6270;DHT22;3168;51.684;6.954;2024-02-21T12:51:31;10.80;1.00
6270;DHT22;3168;51.684;6.954;2024-02-21T12:53:56;10.80;1.00
6270;DHT22;3168;51.684;6.954;2024-02-21T12:56:22;10.90;1.00
6270;DHT22;3168;51.684;6.954;2024-02-21T12:58:48;10.80;1.00
6270;DHT22;3168;51.684;6.954;2024-02-21T13:01:14;10.90;1.00
6270;DHT22;3168;51.684;6.954;2024-02-21T13:03:40;11.10;1.00
6270;DHT22;3168;51.684;6.954;2024-02-21T13:06:06;11.00;1.00
6270;DHT22;3168;51.684;6.954;2024-02-21T13:08:32;11.00;1.00
6270;DHT22;3168;51.684;6.954;2024-02-21T13:10:58;11.00;1.00
6270;DHT22;3168;51.684;6.954;2024-02-21T13:13:24;11.00;1.00
6270;DHT22;3168;51.684;6.954;2024-02-21T13:15:49;11.10;1.00
6270;DHT22;3168;51.684;6.954;2024-02-21T13:18:15;11.10;1.00
6270;DHT22;3168;51.684;6.954;2024-02-21T13:20:41;11.00;1.00
6270;DHT22;3168;51.684;6.954;2024-02-21T13:23:07;11.10;1.00
6270;DHT22;3168;51.684;6.954;2024-02-21T13:25:33;11.20;1.00
6270;DHT22;3168;51.684;6.954;2024-02-21T13:27:58;11.30;1.00
6270;DHT22;3168;51.684;6.954;2024-02-21T13:30:24;11.30;1.00
6270;DHT22;3168;51.684;6.954;2024-02-21T13:32:50;11.20;1.00
6270;DHT22;3168;51.684;6.954;2024-02-21T13:35:16;11.30;1.00
6270;DHT22;3168;51.684;6.954;2024-02-21T13:37:43;11.40;1.00
6270;DHT22;3168;51.684;6.954;2024-02-21T13:40:08;11.40;1.00
6270;DHT22;3168;51.684;6.954;2024-02-21T13:42:34;11.40;1.00
6270;DHT22;3168;51.684;6.954;2024-02-21T13:45:00;11.40;1.00
6270;DHT22;3168;51.684;6.954;2024-02-21T13:47:26;11.50;1.00
6270;DHT22;3168;51.684;6.954;2024-02-21T13:49:52;11.40;1.00
6270;DHT22;3168;51.684;6.954;2024-02-21T13:52:18;11.40;1.00
6270;DHT22;3168;51.684;6.954;2024-02-21T13:54:43;11.30;1.00
6270;DHT22;3168;51.684;6.954;2024-02-21T13:57:09;11.30;1.00
6270;DHT22;3168;51.684;6.954;2024-02-21T13:59:35;11.30;1.00
6270;DHT22;3168;51.684;6.954;2024-02-21T14:02:01;11.30;1.00
6270;DHT22;3168;51.684;6.954;2024-02-21T14:04:27;11.30;1.00
6270;DHT22;3168;51.684;6.954;2024-02-21T14:06:53;11.30;1.00
6270;DHT22;3168;51.684;6.954;2024-02-21T14:09:19;11.30;1.00
6270;DHT22;3168;51.684;6.954;2024-02-21T14:11:44;11.40;1.00
6270;DHT22;3168;51.684;6.954;2024-02-21T14:14:10;11.40;1.00
6270;DHT22;3168;51.684;6.954;2024-02-21T14:16:36;11.40;1.00
6270;DHT22;3168;51.684;6.954;2024-02-21T14:19:02;11.40;1.00
6270;DHT22;3168;51.684;6.954;2024-02-21T14:21:28;11.40;1.00
6270;DHT22;3168;51.684;6.954;2024-02-21T14:23:54;11.50;1.00
6270;DHT22;3168;51.684;6.954;2024-02-21T14:26:20;11.50;1.00
6270;DHT22;3168;51.684;6.954;2024-02-21T14:28:46;11.50;1.00
6270;DHT22;3168;51.684;6.954;2024-02-21T14:31:12;11.60;1.00
6270;DHT22;3168;51.684;6.954;2024-02-21T14:33:38;11.60;1.00
6270;DHT22;3168;51.684;6.954;2024-02-21T14:36:04;11.60;1.00
6270;DHT22;3168;51.684;6.954;2024-02-21T14:38:30;11.60;1.00
6270;DHT22;3168;51.684;6.954;2024-02-21T14:40:56;11.50;1.00
6270;DHT22;3168;51.684;6.954;2024-02-21T14:43:22;11.40;1.00
6270;DHT22;3168;51.684;6.954;2024-02-21T14:45:48;11.40;1.00
6270;DHT22;3168;51.684;6.954;2024-02-21T14:48:13;11.40;1.00
6270;DHT22;3168;51.684;6.954;2024-02-21T14:50:39;11.40;1.00
6270;DHT22;3168;51.684;6.954;2024-02-21T14:53:05;11.40;1.00
6270;DHT22;3168;51.684;6.954;2024-02-21T14:55:31;11.40;1.00
6270;DHT22;3168;51.684;6.954;2024-02-21T14:57:57;11.40;1.00
6270;DHT22;3168;51.684;6.954;2024-02-21T15:00:22;11.40;1.00
6270;DHT22;3168;51.684;6.954;2024-02-21T15:02:48;11.40;1.00
6270;DHT22;3168;51.684;6.954;2024-02-21T15:05:14;11.40;1.00
6270;DHT22;3168;51.684;6.954;2024-02-21T15:07:40;11.40;1.00
6270;DHT22;3168;51.684;6.954;2024-02-21T15:10:06;11.40;1.00
6270;DHT22;3168;51.684;6.954;2024-02-21T15:12:32;11.30;1.00
6270;DHT22;3168;51.684;6.954;2024-02-21T15:14:58;11.30;1.00
6270;DHT22;3168;51.684;6.954;2024-02-21T15:17:24;11.30;1.00
6270;DHT22;3168;51.684;6.954;2024-02-21T15:19:49;11.20;1.00
6270;DHT22;3168;51.684;6.954;2024-02-21T15:22:15;11.20;1.00
6270;DHT22;3168;51.684;6.954;2024-02-21T15:24:41;11.20;1.00
6270;DHT22;3168;51.684;6.954;2024-02-21T15:27:07;11.20;1.00
6270;DHT22;3168;51.684;6.954;2024-02-21T15:29:33;11.20;1.00
6270;DHT22;3168;51.684;6.954;2024-02-21T15:31:59;11.20;1.00
6270;DHT22;3168;51.684;6.954;2024-02-21T15:34:24;11.20;1.00
6270;DHT22;3168;51.684;6.954;2024-02-21T15:36:50;11.20;1.00
6270;DHT22;3168;51.684;6.954;2024-02-21T15:39:16;11.20;1.00
6270;DHT22;3168;51.684;6.954;2024-02-21T15:41:42;11.10;1.00
6270;DHT22;3168;51.684;6.954;2024-02-21T15:44:08;11.10;1.00
6270;DHT22;3168;51.684;6.954;2024-02-21T15:46:34;11.10;1.00
6270;DHT22;3168;51.684;6.954;2024-02-21T15:49:00;11.10;1.00
6270;DHT22;3168;51.684;6.954;2024-02-21T15:51:25;11.00;1.00
6270;DHT22;3168;51.684;6.954;2024-02-21T15:53:51;11.00;1.00
6270;DHT22;3168;51.684;6.954;2024-02-21T15:56:17;11.00;1.00
6270;DHT22;3168;51.684;6.954;2024-02-21T15:58:43;11.00;1.00
6270;DHT22;3168;51.684;6.954;2024-02-21T16:01:09;11.00;1.00
6270;DHT22;3168;51.684;6.954;2024-02-21T16:03:35;11.00;1.00
6270;DHT22;3168;51.684;6.954;2024-02-21T16:06:01;10.90;1.00
6270;DHT22;3168;51.684;6.954;2024-02-21T16:08:26;11.00;1.00
6270;DHT22;3168;51.684;6.954;2024-02-21T16:10:53;11.00;1.00
6270;DHT22;3168;51.684;6.954;2024-02-21T16:13:19;11.00;1.00
6270;DHT22;3168;51.684;6.954;2024-02-21T16:15:45;11.00;1.00